Time;durP1;ratioP1;P1;durP2;ratioP2;P2;SDS_P1;SDS_P2;PMS_P1;PMS_P2;Temp;Humidity;BMP_temperature;BMP_pressure;BME280_temperature;BME280_humidity;BME280_pressure;Samples;Min_cycle;Max_cycle;Signal;HPM_P1;HPM_P2
2023/02/22 00:00:44;;;;;;;;;;;;;;;22.03;21.75;97610.31;5079118;28;848;-81
2023/02/22 00:03:15;;;;;;;;;;;;;;;22.34;21.51;97618.97;5093977;28;1206;-81
2023/02/22 00:05:45;;;;;;;;;;;;;;;22.18;21.65;97617.09;5077074;28;1238;-81
2023/02/22 00:08:13;;;;;;;;;;;;;;;22.46;21.46;97614.47;5113479;28;1164;-81
2023/02/22 00:10:40;;;;;;;;;;;;;;;22.00;21.78;97612.00;5097518;28;1909;-81
2023/02/22 00:13:06;;;;;;;;;;;;;;;22.15;21.73;97611.53;5097364;28;774;-81
2023/02/22 00:15:32;;;;;;;;;;;;;;;22.13;21.77;97609.16;5114369;28;810;-81
2023/02/22 00:17:58;;;;;;;;;;;;;;;22.01;21.83;97612.78;5097273;28;837;-81
2023/02/22 00:20:23;;;;;;;;;;;;;;;22.38;21.47;97608.25;5114357;28;966;-81
2023/02/22 00:22:50;;;;;;;;;;;;;;;22.42;21.38;97613.81;5097110;28;1243;-81
2023/02/22 00:25:19;;;;;;;;;;;;;;;22.10;21.57;97610.88;5097010;28;999;-80
2023/02/22 00:27:46;;;;;;;;;;;;;;;21.96;21.88;97604.88;5113821;28;893;-81
2023/02/22 00:30:17;;;;;;;;;;;;;;;21.64;22.27;97606.75;5113536;28;1891;-81
2023/02/22 00:32:44;;;;;;;;;;;;;;;21.90;22.27;97601.03;5079985;28;1060;-81
2023/02/22 00:35:12;;;;;;;;;;;;;;;22.31;21.50;97597.97;5097010;28;1223;-81
2023/02/22 00:37:40;;;;;;;;;;;;;;;21.96;22.24;97604.88;5113626;28;900;-81
2023/02/22 00:40:07;;;;;;;;;;;;;;;21.98;21.95;97602.38;5079958;28;818;-81
2023/02/22 00:42:33;;;;;;;;;;;;;;;22.11;21.82;97605.97;5096591;28;1237;-81
2023/02/22 00:44:58;;;;;;;;;;;;;;;21.98;22.05;97596.72;5096383;28;1004;-81
2023/02/22 00:47:25;;;;;;;;;;;;;;;22.38;21.53;97605.44;5079576;28;740;-81
2023/02/22 00:49:51;;;;;;;;;;;;;;;22.23;21.84;97599.50;5096391;28;1902;-81
2023/02/22 00:52:16;;;;;;;;;;;;;;;22.01;22.03;97607.13;5063157;28;1051;-81
2023/02/22 00:54:42;;;;;;;;;;;;;;;21.99;22.10;97610.41;5079248;28;896;-81
2023/02/22 00:57:07;;;;;;;;;;;;;;;21.85;22.32;97600.34;5063065;28;1184;-81
2023/02/22 00:59:33;;;;;;;;;;;;;;;22.25;21.83;97605.50;5079673;28;829;-81
2023/02/22 01:01:58;;;;;;;;;;;;;;;22.15;21.80;97606.66;5096425;28;853;-81
2023/02/22 01:04:24;;;;;;;;;;;;;;;22.18;21.88;97604.97;5116947;28;1156;-81
2023/02/22 01:06:49;;;;;;;;;;;;;;;21.92;22.02;97595.72;5082800;28;1110;-81
2023/02/22 01:09:15;;;;;;;;;;;;;;;21.95;22.10;97604.06;5099511;28;839;-81
2023/02/22 01:11:40;;;;;;;;;;;;;;;21.64;22.48;97603.91;5099440;28;1914;-81
2023/02/22 01:14:08;;;;;;;;;;;;;;;22.08;22.06;97601.22;5099230;28;913;-81
2023/02/22 01:16:35;;;;;;;;;;;;;;;22.13;22.01;97606.34;5115879;28;923;-81
2023/02/22 01:19:00;;;;;;;;;;;;;;;21.94;22.30;97601.72;5097107;28;1237;-81
2023/02/22 01:21:26;;;;;;;;;;;;;;;22.25;21.69;97602.66;5095899;28;1183;-81
2023/02/22 01:23:53;;;;;;;;;;;;;;;21.84;22.16;97595.16;5095744;28;1156;-81
2023/02/22 01:26:19;;;;;;;;;;;;;;;22.17;21.95;97598.47;5096048;28;763;-81
2023/02/22 01:28:45;;;;;;;;;;;;;;;22.21;21.97;97601.19;5112935;28;905;-81
2023/02/22 01:31:11;;;;;;;;;;;;;;;22.15;22.26;97598.16;5078820;28;1953;-81
2023/02/22 01:33:37;;;;;;;;;;;;;;;22.05;22.40;97590.78;5095643;28;847;-81
2023/02/22 01:36:04;;;;;;;;;;;;;;;22.08;22.22;97595.56;5095616;28;1137;-81
2023/02/22 01:38:29;;;;;;;;;;;;;;;22.03;22.48;97593.31;5111996;28;875;-81
2023/02/22 01:40:54;;;;;;;;;;;;;;;22.04;22.17;97583.53;5093552;28;890;-81
2023/02/22 01:43:21;;;;;;;;;;;;;;;22.20;22.03;97591.91;5077788;28;787;-81
2023/02/22 01:45:48;;;;;;;;;;;;;;;22.03;22.40;97587.63;5076615;28;1181;-81
2023/02/22 01:48:16;;;;;;;;;;;;;;;21.99;22.27;97590.59;5110711;28;738;-81
2023/02/22 01:50:47;;;;;;;;;;;;;;;21.88;22.58;97597.88;5092425;28;1914;-81
2023/02/22 01:53:13;;;;;;;;;;;;;;;22.30;22.01;97596.41;5109817;28;842;-81
2023/02/22 01:55:39;;;;;;;;;;;;;;;22.08;22.13;97590.69;5109649;28;864;-81
2023/02/22 01:58:04;;;;;;;;;;;;;;;22.13;22.08;97586.50;5077230;28;931;-81
2023/02/22 02:00:30;;;;;;;;;;;;;;;21.93;22.49;97591.63;5076288;28;1276;-81
2023/02/22 02:03:01;;;;;;;;;;;;;;;21.69;22.60;97586.34;5109603;28;851;-81
2023/02/22 02:05:30;;;;;;;;;;;;;;;21.74;22.64;97585.78;5109603;28;900;-81
2023/02/22 02:07:55;;;;;;;;;;;;;;;22.30;22.25;97585.06;5108958;28;1106;-81
2023/02/22 02:10:23;;;;;;;;;;;;;;;22.18;22.18;97597.25;5076836;28;1975;-81
2023/02/22 02:12:49;;;;;;;;;;;;;;;21.91;22.65;97594.91;5092674;28;1245;-81
2023/02/22 02:15:17;;;;;;;;;;;;;;;21.94;22.33;97601.72;5115076;28;973;-81
2023/02/22 02:17:42;;;;;;;;;;;;;;;21.94;22.32;97596.81;5115194;28;949;-81
2023/02/22 02:20:10;;;;;;;;;;;;;;;22.01;22.49;97607.91;5081741;28;1145;-81
2023/02/22 02:22:50;;;;;;;;;;;;;;;22.36;22.01;97603.06;5098338;28;1069;-81
2023/02/22 02:25:26;;;;;;;;;;;;;;;22.35;21.97;97609.19;5114927;28;994;-82
2023/02/22 02:28:06;;;;;;;;;;;;;;;22.05;22.50;97607.78;5097427;28;1319;-81
2023/02/22 02:30:35;;;;;;;;;;;;;;;21.89;22.45;97605.13;5097957;28;1906;-81
2023/02/22 02:33:03;;;;;;;;;;;;;;;22.03;22.56;97593.31;5098464;28;1144;-81
2023/02/22 02:35:29;;;;;;;;;;;;;;;22.13;22.45;97603.50;5097796;28;917;-81
2023/02/22 02:38:14;;;;;;;;;;;;;;;22.42;21.85;97596.81;5115402;28;786;-81
2023/02/22 02:40:40;;;;;;;;;;;;;;;22.18;22.06;97596.47;5114553;28;977;-81
2023/02/22 02:43:25;;;;;;;;;;;;;;;21.89;22.71;97599.44;5098045;28;1177;-79
2023/02/22 02:45:53;;;;;;;;;;;;;;;21.96;22.45;97602.03;5071369;28;1270;-78
2023/02/22 02:48:20;;;;;;;;;;;;;;;22.23;22.17;97602.34;5109189;28;758;-79
2023/02/22 02:50:49;;;;;;;;;;;;;;;22.24;22.37;97603.91;5092310;28;1910;-78
2023/02/22 02:53:16;;;;;;;;;;;;;;;22.05;22.45;97602.13;5109097;28;778;-78
2023/02/22 02:55:41;;;;;;;;;;;;;;;21.98;22.45;97606.00;5108932;28;866;-79
2023/02/22 02:58:07;;;;;;;;;;;;;;;22.06;22.72;97612.19;5076617;28;782;-79
2023/02/22 03:00:38;;;;;;;;;;;;;;;21.87;22.63;97599.13;5075815;28;1154;-78
2023/02/22 03:03:09;;;;;;;;;;;;;;;21.60;23.09;97600.38;5107870;28;814;-78
2023/02/22 03:05:40;;;;;;;;;;;;;;;22.11;22.33;97603.16;5075438;28;1251;-78
2023/02/22 03:08:06;;;;;;;;;;;;;;;22.15;22.63;97600.19;5091854;28;1130;-79
2023/02/22 03:10:49;;;;;;;;;;;;;;;22.05;22.43;97602.13;5076949;28;1910;-79
2023/02/22 03:13:30;;;;;;;;;;;;;;;21.73;23.03;97601.19;5075670;28;1252;-78
2023/02/22 03:16:01;;;;;;;;;;;;;;;21.82;23.01;97595.63;5090730;28;1301;-79
2023/02/22 03:18:40;;;;;;;;;;;;;;;22.38;22.33;97613.13;5074200;28;1100;-78
2023/02/22 03:21:25;;;;;;;;;;;;;;;22.29;22.48;97606.16;5073977;28;950;-78
2023/02/22 03:24:00;;;;;;;;;;;;;;;22.40;22.06;97605.78;5074007;28;1268;-79
2023/02/22 03:26:32;;;;;;;;;;;;;;;21.97;22.58;97612.13;5073971;28;981;-78
2023/02/22 03:28:58;;;;;;;;;;;;;;;21.88;22.63;97620.53;5040734;28;1318;-78
2023/02/22 03:31:27;;;;;;;;;;;;;;;22.12;22.58;97629.44;5073648;28;1992;-79
2023/02/22 03:34:03;;;;;;;;;;;;;;;22.32;22.09;97627.09;5040734;28;1177;-78
2023/02/22 03:36:31;;;;;;;;;;;;;;;22.38;22.07;97630.16;5040827;28;1112;-79
2023/02/22 03:38:57;;;;;;;;;;;;;;;21.96;22.55;97627.53;5043086;28;1164;-79
2023/02/22 03:41:24;;;;;;;;;;;;;;;21.98;22.58;97630.72;5044383;28;1134;-78
2023/02/22 03:43:53;;;;;;;;;;;;;;;21.87;22.85;97635.94;5044465;28;1209;-79
2023/02/22 03:46:19;;;;;;;;;;;;;;;21.47;23.11;97630.75;5063018;28;845;-79
2023/02/22 03:48:47;;;;;;;;;;;;;;;21.95;22.89;97625.94;5078785;28;1136;-79
2023/02/22 03:51:14;;;;;;;;;;;;;;;22.20;22.39;97637.25;5094877;28;1901;-79
2023/02/22 03:53:43;;;;;;;;;;;;;;;21.96;22.78;97638.84;5095147;28;1284;-79
2023/02/22 03:56:09;;;;;;;;;;;;;;;21.93;22.83;97640.56;5111968;28;746;-79
2023/02/22 03:58:35;;;;;;;;;;;;;;;22.00;22.66;97642.38;5095443;28;1085;-79
2023/02/22 04:01:01;;;;;;;;;;;;;;;22.07;22.60;97639.28;5097063;28;1211;-79
2023/02/22 04:03:26;;;;;;;;;;;;;;;22.10;22.47;97644.03;5114561;28;865;-78
2023/02/22 04:05:52;;;;;;;;;;;;;;;22.32;22.29;97644.91;5097226;28;916;-79
2023/02/22 04:08:18;;;;;;;;;;;;;;;21.97;22.55;97643.28;5080310;28;1282;-79
2023/02/22 04:10:45;;;;;;;;;;;;;;;21.66;23.11;97638.25;5097557;28;1897;-79
2023/02/22 04:13:13;;;;;;;;;;;;;;;21.93;22.60;97636.94;5097510;28;1381;-79
2023/02/22 04:15:42;;;;;;;;;;;;;;;21.94;22.89;97625.16;5096698;28;1196;-79
2023/02/22 04:18:09;;;;;;;;;;;;;;;22.17;22.59;97626.81;5080170;28;1129;-79
2023/02/22 04:20:35;;;;;;;;;;;;;;;22.26;22.29;97635.41;5096575;28;1193;-79
2023/02/22 04:23:08;;;;;;;;;;;;;;;21.99;22.65;97626.63;5080180;28;1156;-78
2023/02/22 04:25:37;;;;;;;;;;;;;;;21.92;22.96;97609.88;5113944;28;1091;-79
2023/02/22 04:28:09;;;;;;;;;;;;;;;21.87;22.88;97618.94;5096819;28;1018;-79
2023/02/22 04:30:50;;;;;;;;;;;;;;;21.89;22.77;97613.63;5113782;28;2224;-81
2023/02/22 04:33:17;;;;;;;;;;;;;;;22.10;22.59;97627.03;5077841;28;1397;-80
2023/02/22 04:35:43;;;;;;;;;;;;;;;22.13;22.68;97622.56;5077709;28;1161;-80
2023/02/22 04:38:08;;;;;;;;;;;;;;;21.89;22.60;97610.78;5077630;28;1212;-81
2023/02/22 04:40:34;;;;;;;;;;;;;;;21.82;23.22;97623.16;5076205;28;1458;-81
2023/02/22 04:42:59;;;;;;;;;;;;;;;21.55;23.16;97626.44;5063459;28;1334;-81
2023/02/22 04:45:25;;;;;;;;;;;;;;;21.67;23.03;97631.31;5095263;28;1086;-81
2023/02/22 04:47:50;;;;;;;;;;;;;;;22.25;22.35;97633.84;5078567;28;1529;-81
2023/02/22 04:50:16;;;;;;;;;;;;;;;22.34;22.14;97625.41;5076514;28;1983;-81
2023/02/22 04:52:42;;;;;;;;;;;;;;;22.44;22.06;97622.66;5078643;28;920;-79
2023/02/22 04:55:07;;;;;;;;;;;;;;;21.90;22.72;97635.03;5059506;28;1260;-79
2023/02/22 04:57:34;;;;;;;;;;;;;;;21.85;23.05;97633.56;5072963;28;1580;-79
2023/02/22 05:00:00;;;;;;;;;;;;;;;21.92;23.06;97638.22;5078355;28;844;-79
2023/02/22 05:02:26;;;;;;;;;;;;;;;22.14;22.78;97627.75;5077176;28;1195;-79
2023/02/22 05:04:51;;;;;;;;;;;;;;;22.24;22.46;97637.91;5116693;28;909;-79
2023/02/22 05:07:16;;;;;;;;;;;;;;;21.98;22.49;97637.16;5098593;28;1354;-79
2023/02/22 05:09:42;;;;;;;;;;;;;;;22.12;22.57;97641.56;5079441;28;1976;-79
2023/02/22 05:12:07;;;;;;;;;;;;;;;22.01;22.82;97646.78;5079218;28;891;-79
2023/02/22 05:14:33;;;;;;;;;;;;;;;22.08;22.53;97646.56;5095811;28;893;-79
2023/02/22 05:16:58;;;;;;;;;;;;;;;22.06;22.39;97649.03;5097998;28;1366;-79
2023/02/22 05:19:24;;;;;;;;;;;;;;;22.16;22.71;97653.56;5078215;28;1331;-79
2023/02/22 05:21:49;;;;;;;;;;;;;;;21.87;22.77;97652.94;5078917;28;819;-79
2023/02/22 05:24:15;;;;;;;;;;;;;;;21.96;22.61;97667.19;5096070;28;873;-79
2023/02/22 05:26:41;;;;;;;;;;;;;;;21.78;22.97;97662.91;5095217;28;1343;-79
2023/02/22 05:29:07;;;;;;;;;;;;;;;21.95;22.86;97660.72;5095996;28;948;-79
2023/02/22 05:31:32;;;;;;;;;;;;;;;22.36;22.24;97675.97;5078771;28;1913;-79
2023/02/22 05:33:58;;;;;;;;;;;;;;;22.24;22.56;97671.94;5079002;28;796;-79
2023/02/22 05:36:23;;;;;;;;;;;;;;;21.98;22.61;97678.88;5064861;28;1657;-79
2023/02/22 05:38:49;;;;;;;;;;;;;;;21.93;22.99;97687.94;5063217;28;1319;-79
2023/02/22 05:41:14;;;;;;;;;;;;;;;21.83;22.76;97687.81;5077208;28;1569;-79
2023/02/22 05:43:39;;;;;;;;;;;;;;;21.94;22.96;97700.84;5059285;28;790;-79
2023/02/22 05:46:05;;;;;;;;;;;;;;;22.03;22.62;97701.75;5074893;28;1557;-79
2023/02/22 05:48:30;;;;;;;;;;;;;;;22.20;22.68;97704.47;5074754;28;909;-79
2023/02/22 05:50:56;;;;;;;;;;;;;;;21.95;22.64;97708.09;5074704;28;1985;-79
2023/02/22 05:53:22;;;;;;;;;;;;;;;21.87;22.77;97710.38;5074843;28;878;-79
2023/02/22 05:55:48;;;;;;;;;;;;;;;21.99;22.77;97708.78;5074965;28;866;-79
2023/02/22 05:58:13;;;;;;;;;;;;;;;21.76;23.11;97716.38;5058025;28;1574;-79
2023/02/22 06:00:39;;;;;;;;;;;;;;;22.12;22.61;97718.06;5056275;28;915;-79
2023/02/22 06:03:05;;;;;;;;;;;;;;;22.22;22.37;97725.41;5074829;28;880;-79
2023/02/22 06:05:31;;;;;;;;;;;;;;;22.18;22.72;97727.59;5074689;28;969;-79
2023/02/22 06:07:56;;;;;;;;;;;;;;;21.92;22.79;97723.97;5074915;28;1207;-79
2023/02/22 06:10:22;;;;;;;;;;;;;;;21.87;23.20;97726.59;5073389;28;1918;-79
2023/02/22 06:12:48;;;;;;;;;;;;;;;21.66;23.34;97733.69;5056752;28;1360;-79
2023/02/22 06:15:14;;;;;;;;;;;;;;;22.24;22.77;97739.94;5056481;28;775;-79
2023/02/22 06:17:40;;;;;;;;;;;;;;;21.94;22.77;97737.69;5070748;28;824;-79
2023/02/22 06:20:07;;;;;;;;;;;;;;;21.97;22.91;97742.44;5074908;28;938;-79
2023/02/22 06:22:32;;;;;;;;;;;;;;;21.93;23.12;97753.09;5074358;28;950;-79
2023/02/22 06:24:57;;;;;;;;;;;;;;;21.56;23.62;97749.78;5074333;28;1455;-79
2023/02/22 06:27:23;;;;;;;;;;;;;;;22.05;22.89;97749.44;5074702;28;858;-79
2023/02/22 06:29:48;;;;;;;;;;;;;;;22.22;22.50;97748.09;5057700;28;1984;-79
2023/02/22 06:32:14;;;;;;;;;;;;;;;22.34;22.71;97752.97;5072857;28;1382;-79
2023/02/22 06:34:42;;;;;;;;;;;;;;;21.82;22.88;97748.56;5091102;28;1545;-79
2023/02/22 06:37:07;;;;;;;;;;;;;;;21.53;23.52;97764.84;5057506;28;1542;-79
2023/02/22 06:39:33;;;;;;;;;;;;;;;21.85;22.99;97763.84;5057737;28;989;-79
2023/02/22 06:41:58;;;;;;;;;;;;;;;22.09;23.00;97750.13;5073408;28;998;-79
2023/02/22 06:44:24;;;;;;;;;;;;;;;22.03;22.90;97746.28;5074247;28;884;-79
2023/02/22 06:46:52;;;;;;;;;;;;;;;22.12;23.10;97754.13;5074541;28;940;-79
2023/02/22 06:49:18;;;;;;;;;;;;;;;21.90;23.13;97748.31;5073615;28;1597;-79
2023/02/22 06:51:43;;;;;;;;;;;;;;;21.95;23.26;97747.75;5057331;28;1989;-80
2023/02/22 06:54:09;;;;;;;;;;;;;;;21.89;23.14;97758.06;5088190;28;876;-80
2023/02/22 06:56:34;;;;;;;;;;;;;;;21.83;23.34;97755.00;5069211;28;748;-80
2023/02/22 06:59:03;;;;;;;;;;;;;;;22.10;23.06;97751.72;5075513;28;1115;-80
2023/02/22 07:01:28;;;;;;;;;;;;;;;21.98;23.07;97749.69;5076744;28;728;-80
2023/02/22 07:03:53;;;;;;;;;;;;;;;22.00;23.20;97747.19;5075019;28;1371;-80
2023/02/22 07:06:19;;;;;;;;;;;;;;;22.06;23.20;97742.53;5075182;28;1323;-80
2023/02/22 07:08:44;;;;;;;;;;;;;;;21.98;22.96;97738.38;5076726;28;715;-80
2023/02/22 07:11:10;;;;;;;;;;;;;;;21.85;23.45;97741.19;5108946;28;1913;-80
2023/02/22 07:13:35;;;;;;;;;;;;;;;21.94;23.09;97732.00;5076797;28;873;-80
2023/02/22 07:16:01;;;;;;;;;;;;;;;22.01;22.96;97728.94;5112186;28;1270;-80
2023/02/22 07:18:26;;;;;;;;;;;;;;;22.11;23.11;97733.50;5118365;28;846;-80
2023/02/22 07:20:51;;;;;;;;;;;;;;;22.12;22.85;97734.28;5101795;28;1209;-80
2023/02/22 07:23:17;;;;;;;;;;;;;;;21.97;22.92;97731.13;5101557;28;878;-80
2023/02/22 07:25:42;;;;;;;;;;;;;;;21.99;23.02;97734.28;5113203;28;1407;-80
2023/02/22 07:28:09;;;;;;;;;;;;;;;21.75;23.25;97731.78;5097974;28;916;-80
2023/02/22 07:30:35;;;;;;;;;;;;;;;22.05;23.21;97733.25;5108590;28;1898;-80
2023/02/22 07:33:01;;;;;;;;;;;;;;;22.03;22.96;97734.97;5097699;28;957;-80
2023/02/22 07:35:27;;;;;;;;;;;;;;;22.19;22.85;97740.53;5069269;28;1628;-80
2023/02/22 07:37:52;;;;;;;;;;;;;;;22.10;22.92;97740.38;5081044;28;905;-80
2023/02/22 07:40:18;;;;;;;;;;;;;;;21.98;23.04;97741.97;5097725;28;934;-80
2023/02/22 07:42:53;;;;;;;;;;;;;;;21.84;23.42;97740.38;5097798;28;852;-80
2023/02/22 07:45:18;;;;;;;;;;;;;;;21.91;23.29;97744.25;5063788;28;916;-80
2023/02/22 07:47:47;;;;;;;;;;;;;;;22.12;22.81;97745.63;5081191;28;808;-80
2023/02/22 07:50:15;;;;;;;;;;;;;;;22.08;23.00;97748.56;5081194;28;1906;-80
2023/02/22 07:52:47;;;;;;;;;;;;;;;22.18;22.83;97749.50;5097642;28;1293;-80
2023/02/22 07:55:15;;;;;;;;;;;;;;;21.94;23.16;97749.78;5110572;28;1271;-80
2023/02/22 07:57:41;;;;;;;;;;;;;;;22.09;22.93;97750.13;5095263;28;1062;-80
2023/02/22 08:00:07;;;;;;;;;;;;;;;21.94;23.10;97751.84;5079577;28;787;-80
2023/02/22 08:02:37;;;;;;;;;;;;;;;22.03;23.27;97752.75;5078371;28;821;-80
2023/02/22 08:05:04;;;;;;;;;;;;;;;22.24;22.79;97750.50;5077825;28;1402;-80
2023/02/22 08:07:30;;;;;;;;;;;;;;;22.27;22.68;97750.34;5112068;28;1140;-80
2023/02/22 08:09:55;;;;;;;;;;;;;;;21.92;23.53;97743.00;5111109;28;1909;-80
2023/02/22 08:12:20;;;;;;;;;;;;;;;21.96;23.35;97743.66;5079248;28;776;-80
2023/02/22 08:14:46;;;;;;;;;;;;;;;21.93;23.11;97742.56;5076802;28;982;-80
2023/02/22 08:17:11;;;;;;;;;;;;;;;22.15;23.06;97753.22;5093181;28;1466;-80
2023/02/22 08:19:38;;;;;;;;;;;;;;;22.18;23.09;97741.78;5077108;28;936;-80
2023/02/22 08:22:03;;;;;;;;;;;;;;;22.28;22.82;97740.63;5076756;28;887;-80
2023/02/22 08:24:29;;;;;;;;;;;;;;;21.90;23.38;97737.00;5075342;28;865;-80
2023/02/22 08:26:54;;;;;;;;;;;;;;;21.90;23.24;97742.66;5076579;28;816;-80
2023/02/22 08:29:21;;;;;;;;;;;;;;;21.82;23.42;97748.56;5075000;28;1332;-81
2023/02/22 08:31:52;;;;;;;;;;;;;;;22.10;23.25;97746.03;5056577;28;1985;-80
2023/02/22 08:34:18;;;;;;;;;;;;;;;22.19;23.04;97743.34;5056392;28;1156;-80
2023/02/22 08:36:43;;;;;;;;;;;;;;;22.12;23.18;97737.91;5039851;28;728;-80
2023/02/22 08:39:09;;;;;;;;;;;;;;;21.85;23.50;97753.31;5057022;28;762;-80
2023/02/22 08:41:34;;;;;;;;;;;;;;;21.88;23.45;97742.31;5056894;28;840;-80
2023/02/22 08:44:01;;;;;;;;;;;;;;;21.89;23.35;97743.91;5055902;28;1375;-80
2023/02/22 08:46:26;;;;;;;;;;;;;;;21.76;23.65;97730.56;5086335;28;820;-80
2023/02/22 08:48:52;;;;;;;;;;;;;;;21.82;23.75;97747.78;5060851;28;1497;-80
2023/02/22 08:51:18;;;;;;;;;;;;;;;21.85;23.68;97746.84;5078569;28;1966;-80
2023/02/22 08:53:43;;;;;;;;;;;;;;;22.20;23.11;97753.44;5107117;28;1358;-81
2023/02/22 08:56:08;;;;;;;;;;;;;;;21.91;23.47;97761.22;5058479;28;827;-80
2023/02/22 08:58:34;;;;;;;;;;;;;;;21.91;23.57;97762.03;5057186;28;1359;-80
2023/02/22 09:00:59;;;;;;;;;;;;;;;21.77;23.48;97763.28;5058559;28;877;-83
2023/02/22 09:03:25;;;;;;;;;;;;;;;22.16;23.19;97771.81;5058647;28;691;-80
2023/02/22 09:05:50;;;;;;;;;;;;;;;22.08;23.17;97762.72;5058738;28;759;-80
2023/02/22 09:08:16;;;;;;;;;;;;;;;22.19;23.34;97766.03;5093397;28;1370;-80
2023/02/22 09:10:41;;;;;;;;;;;;;;;21.87;23.29;97771.91;5090137;28;1987;-80
2023/02/22 09:13:07;;;;;;;;;;;;;;;21.90;23.39;97770.97;5090469;28;750;-80
2023/02/22 09:15:34;;;;;;;;;;;;;;;21.66;23.68;97760.00;5057012;28;1131;-80
2023/02/22 09:18:00;;;;;;;;;;;;;;;21.55;23.92;97768.00;5090153;28;872;-80
2023/02/22 09:20:25;;;;;;;;;;;;;;;22.26;22.99;97760.13;5058212;28;743;-80
2023/02/22 09:22:51;;;;;;;;;;;;;;;22.17;23.12;97773.38;5078420;28;1520;-80
2023/02/22 09:25:19;;;;;;;;;;;;;;;22.10;23.19;97772.38;5077774;28;1255;-81
2023/02/22 09:27:53;;;;;;;;;;;;;;;21.78;23.84;97770.53;5076886;28;850;-80
2023/02/22 09:30:26;;;;;;;;;;;;;;;21.87;23.50;97774.75;5077883;28;1913;-80
2023/02/22 09:32:52;;;;;;;;;;;;;;;22.03;23.44;97760.47;5110431;28;813;-80
2023/02/22 09:35:18;;;;;;;;;;;;;;;22.23;23.34;97772.38;5075819;28;1398;-80
2023/02/22 09:37:43;;;;;;;;;;;;;;;22.09;23.28;97761.47;5109662;28;921;-80
2023/02/22 09:40:16;;;;;;;;;;;;;;;22.10;23.26;97763.88;5077653;28;755;-81
2023/02/22 09:42:44;;;;;;;;;;;;;;;21.92;23.65;97771.34;5076606;28;1134;-80
2023/02/22 09:45:13;;;;;;;;;;;;;;;21.88;23.64;97773.47;5092988;28;799;-80
2023/02/22 09:47:40;;;;;;;;;;;;;;;21.70;23.78;97769.16;5109944;28;940;-80
2023/02/22 09:50:14;;;;;;;;;;;;;;;22.00;23.62;97769.84;5068547;28;1926;-80
2023/02/22 09:52:42;;;;;;;;;;;;;;;21.93;23.76;97758.75;5072142;28;1114;-80
2023/02/22 09:55:11;;;;;;;;;;;;;;;22.05;23.42;97760.78;5057272;28;918;-80
2023/02/22 09:57:39;;;;;;;;;;;;;;;21.76;23.70;97767.38;5089826;28;773;-80
2023/02/22 10:00:13;;;;;;;;;;;;;;;21.83;24.00;97763.50;5089615;28;806;-80
2023/02/22 10:02:43;;;;;;;;;;;;;;;21.74;23.83;97767.00;5058014;28;1446;-81
2023/02/22 10:05:12;;;;;;;;;;;;;;;22.06;23.45;97759.53;5076139;28;1288;-80
2023/02/22 10:07:39;;;;;;;;;;;;;;;22.12;23.45;97754.91;5109512;28;1154;-80
2023/02/22 10:10:05;;;;;;;;;;;;;;;22.16;23.15;97752.75;5077178;28;1981;-81
2023/02/22 10:12:41;;;;;;;;;;;;;;;21.75;23.70;97759.31;5076002;28;1191;-80
2023/02/22 10:15:25;;;;;;;;;;;;;;;21.90;23.68;97756.81;5108363;28;1859;-80
2023/02/22 10:17:54;;;;;;;;;;;;;;;21.92;23.47;97740.19;5055535;28;1310;-80
2023/02/22 10:20:24;;;;;;;;;;;;;;;22.02;23.49;97745.50;5094693;28;860;-80
2023/02/22 10:23:08;;;;;;;;;;;;;;;22.03;23.68;97746.28;5078096;28;1090;-80
2023/02/22 10:25:34;;;;;;;;;;;;;;;22.16;23.28;97738.59;5094741;28;1001;-80
2023/02/22 10:28:02;;;;;;;;;;;;;;;21.82;23.76;97734.41;5077948;28;941;-80
2023/02/22 10:30:31;;;;;;;;;;;;;;;21.98;23.50;97733.47;5077815;28;1988;-81
2023/02/22 10:33:04;;;;;;;;;;;;;;;21.83;23.81;97727.47;5080803;28;1403;-79
2023/02/22 10:35:32;;;;;;;;;;;;;;;21.73;23.99;97728.59;5077828;28;874;-81
2023/02/22 10:38:22;;;;;;;;;;;;;;;21.92;23.69;97718.31;5061217;28;751;-80
2023/02/22 10:41:16;;;;;;;;;;;;;;;22.18;23.50;97716.28;5037754;28;883;-81
2023/02/22 10:43:42;;;;;;;;;;;;;;;21.97;23.76;97716.94;5034350;28;1056;-80
2023/02/22 10:46:08;;;;;;;;;;;;;;;22.12;23.33;97714.44;5017272;28;1480;-81
2023/02/22 10:48:35;;;;;;;;;;;;;;;22.08;23.55;97715.34;5017611;28;1278;-80
2023/02/22 10:51:01;;;;;;;;;;;;;;;21.81;23.70;97717.84;5002425;28;1918;-80
2023/02/22 10:53:27;;;;;;;;;;;;;;;22.05;23.67;97709.78;4978791;28;924;-80
2023/02/22 10:56:05;;;;;;;;;;;;;;;22.23;23.16;97715.69;4979290;28;839;-81
2023/02/22 10:58:38;;;;;;;;;;;;;;;22.03;23.67;97712.28;4994966;28;944;-81
2023/02/22 11:01:16;;;;;;;;;;;;;;;21.85;23.96;97712.84;4978953;28;990;-81
2023/02/22 11:03:41;;;;;;;;;;;;;;;21.81;23.90;97710.16;4995399;28;999;-81
2023/02/22 11:06:19;;;;;;;;;;;;;;;21.72;24.12;97712.88;4961745;28;1295;-81
2023/02/22 11:08:49;;;;;;;;;;;;;;;22.04;23.69;97709.00;4994715;28;796;-81
2023/02/22 11:11:23;;;;;;;;;;;;;;;22.18;23.39;97701.31;4994066;28;1910;-80
2023/02/22 11:13:53;;;;;;;;;;;;;;;22.19;23.49;97703.69;5010863;28;991;-80
2023/02/22 11:16:36;;;;;;;;;;;;;;;21.98;23.88;97698.69;5010914;28;816;-80
2023/02/22 11:19:08;;;;;;;;;;;;;;;21.79;24.13;97698.47;5032203;28;1416;-80
2023/02/22 11:21:33;;;;;;;;;;;;;;;22.08;23.55;97703.22;5053956;28;817;-80
2023/02/22 11:24:02;;;;;;;;;;;;;;;22.14;23.72;97704.25;5037935;28;1240;-80
2023/02/22 11:26:28;;;;;;;;;;;;;;;22.22;23.67;97714.09;5037854;28;1358;-80
2023/02/22 11:28:56;;;;;;;;;;;;;;;21.97;23.63;97714.13;5037685;28;1097;-80
2023/02/22 11:31:22;;;;;;;;;;;;;;;21.99;23.73;97717.28;5038152;28;1906;-80
2023/02/22 11:33:54;;;;;;;;;;;;;;;21.68;24.07;97715.00;5036701;28;1479;-80
2023/02/22 11:36:29;;;;;;;;;;;;;;;21.88;24.10;97711.16;5037542;28;1221;-80
2023/02/22 11:38:58;;;;;;;;;;;;;;;21.86;23.76;97705.94;5054107;28;888;-80
2023/02/22 11:41:28;;;;;;;;;;;;;;;22.23;23.46;97706.41;5054095;28;1026;-80
2023/02/22 11:43:53;;;;;;;;;;;;;;;22.23;23.23;97710.03;5037001;28;759;-80
2023/02/22 11:46:20;;;;;;;;;;;;;;;21.96;23.93;97712.50;5054160;28;849;-80
2023/02/22 11:48:59;;;;;;;;;;;;;;;21.96;23.74;97706.84;5053093;28;1744;-80
2023/02/22 11:51:25;;;;;;;;;;;;;;;21.70;24.43;97712.50;5056430;28;1981;-80
2023/02/22 11:53:56;;;;;;;;;;;;;;;22.24;23.39;97717.28;5055902;28;834;-80
2023/02/22 11:56:28;;;;;;;;;;;;;;;22.23;23.33;97717.75;5055947;28;734;-80
2023/02/22 11:58:54;;;;;;;;;;;;;;;22.16;23.70;97709.47;5090242;28;1421;-81
2023/02/22 12:01:28;;;;;;;;;;;;;;;21.85;23.85;97713.66;5079674;28;830;-80
2023/02/22 12:04:14;;;;;;;;;;;;;;;21.87;23.99;97712.41;5079306;28;849;-80
2023/02/22 12:06:58;;;;;;;;;;;;;;;21.98;24.10;97712.88;5079585;28;1063;-81
2023/02/22 12:09:50;;;;;;;;;;;;;;;21.93;24.17;97702.88;5078349;28;1216;-80
2023/02/22 12:12:15;;;;;;;;;;;;;;;22.24;23.36;97711.59;5097294;28;1067;-80
2023/02/22 12:14:41;;;;;;;;;;;;;;;22.00;23.98;97713.97;5096598;28;1498;-80
2023/02/22 12:17:06;;;;;;;;;;;;;;;21.58;24.29;97716.16;5097458;28;888;-80
2023/02/22 12:19:34;;;;;;;;;;;;;;;21.54;24.28;97716.25;5080716;28;817;-80
2023/02/22 12:22:02;;;;;;;;;;;;;;;22.05;23.75;97706.94;5081065;28;740;-80
2023/02/22 12:24:33;;;;;;;;;;;;;;;22.17;23.59;97716.69;5080189;28;806;-80
2023/02/22 12:27:00;;;;;;;;;;;;;;;22.09;23.63;97711.25;5063899;28;1158;-80
2023/02/22 12:29:45;;;;;;;;;;;;;;;21.78;24.07;97713.09;5075847;28;1470;-80
2023/02/22 12:32:14;;;;;;;;;;;;;;;21.88;23.97;97711.16;5060497;28;1327;-80
2023/02/22 12:34:51;;;;;;;;;;;;;;;21.87;24.18;97716.03;5062436;28;1564;-80
2023/02/22 12:37:26;;;;;;;;;;;;;;;21.98;23.84;97715.69;5079637;28;1500;-80
2023/02/22 12:39:57;;;;;;;;;;;;;;;21.97;23.75;97731.13;5076307;28;934;-80
2023/02/22 12:42:25;;;;;;;;;;;;;;;22.03;23.77;97734.97;5075975;28;1510;-80
2023/02/22 12:44:55;;;;;;;;;;;;;;;21.68;24.39;97743.34;5059716;28;1158;-80
2023/02/22 12:47:22;;;;;;;;;;;;;;;21.82;23.87;97731.56;5076630;28;896;-80
2023/02/22 12:49:49;;;;;;;;;;;;;;;22.01;23.87;97723.28;4996332;28;1902;-80
2023/02/22 12:52:17;;;;;;;;;;;;;;;22.12;23.59;97726.56;4993610;28;831;-80
2023/02/22 12:55:01;;;;;;;;;;;;;;;22.19;23.51;97736.91;4977725;28;891;-80
2023/02/22 12:57:56;;;;;;;;;;;;;;;21.89;23.79;97735.41;4968019;28;1469;-80
2023/02/22 13:00:25;;;;;;;;;;;;;;;21.84;24.13;97751.72;4996183;28;1574;-80
2023/02/22 13:03:09;;;;;;;;;;;;;;;21.82;24.01;97765.56;4982328;28;1250;-80
2023/02/22 13:05:35;;;;;;;;;;;;;;;22.25;23.76;97758.53;4996748;28;1135;-81
2023/02/22 13:08:07;;;;;;;;;;;;;;;22.09;23.94;97767.94;4998753;28;1252;-80